createdAt,value
2019-02-25T00:00:54.204Z,64.42
2019-02-25T00:01:54.163Z,64.21
2019-02-25T00:03:25.250Z,63.89
2019-02-25T00:04:24.848Z,64.39
2019-02-25T00:05:55.558Z,65.84
2019-02-25T00:06:55.516Z,64.62
2019-02-25T00:08:26.190Z,65.84
2019-02-25T00:09:26.158Z,65.53
2019-02-25T00:10:57.252Z,64.70
2019-02-25T00:11:56.884Z,65.22
2019-02-25T00:13:27.512Z,66.16
2019-02-25T00:14:27.508Z,68.24
2019-02-25T00:15:58.216Z,68.03
2019-02-25T00:16:58.164Z,68.59
2019-02-25T00:18:28.862Z,68.17
2019-02-25T00:19:28.850Z,68.38
2019-02-25T00:20:58.992Z,68.38
2019-02-25T00:21:59.876Z,70.04
2019-02-25T00:23:29.627Z,69.84
2019-02-25T00:24:29.612Z,69.53
2019-02-25T00:26:00.337Z,69.63
2019-02-25T00:27:00.282Z,67.54
2019-02-25T00:28:30.986Z,68.27
2019-02-25T00:29:31.868Z,70.04
2019-02-25T00:31:01.688Z,68.27
2019-02-25T00:32:01.658Z,67.65
2019-02-25T00:33:32.340Z,68.27
2019-02-25T00:34:32.328Z,67.44
2019-02-25T00:36:03.066Z,66.08
2019-02-25T00:37:03.016Z,65.25
2019-02-25T00:38:34.110Z,67.96
2019-02-25T00:39:33.706Z,66.50
2019-02-25T00:41:04.437Z,66.60
2019-02-25T00:42:04.426Z,66.08
2019-02-25T00:43:35.070Z,65.77
2019-02-25T00:44:35.062Z,65.74
2019-02-25T00:46:06.740Z,64.83
2019-02-25T00:47:06.720Z,64.49
2019-02-25T00:48:38.290Z,65.33
2019-02-25T00:49:37.411Z,64.49
2019-02-25T00:51:09.018Z,64.39
2019-02-25T00:52:08.135Z,64.18
2019-02-25T00:53:38.814Z,63.76
2019-02-25T00:54:38.775Z,63.63
2019-02-25T00:56:09.478Z,64.18
2019-02-25T00:57:09.460Z,64.46
2019-02-25T00:58:40.185Z,64.39
2019-02-25T00:59:40.146Z,64.80
2019-02-25T01:01:11.738Z,65.53
2019-02-25T01:02:10.822Z,66.05
2019-02-25T01:03:42.486Z,66.36
2019-02-25T01:04:42.479Z,66.16
2019-02-25T01:06:13.218Z,66.47
2019-02-25T01:07:13.166Z,66.36
2019-02-25T01:08:43.863Z,65.84
2019-02-25T01:09:43.854Z,66.71
2019-02-25T01:11:14.556Z,66.99
2019-02-25T01:12:14.517Z,66.26
2019-02-25T01:13:45.620Z,67.23
2019-02-25T01:14:45.244Z,67.13
2019-02-25T01:16:15.908Z,67.02
2019-02-25T01:17:15.889Z,66.29
2019-02-25T01:18:46.591Z,66.39
2019-02-25T01:19:46.576Z,66.60
2019-02-25T01:21:17.282Z,66.29
2019-02-25T01:22:17.264Z,66.39
2019-02-25T01:23:48.991Z,66.19
2019-02-25T01:24:47.941Z,67.05
2019-02-25T01:26:18.484Z,68.10
2019-02-25T01:27:18.014Z,68.30
2019-02-25T01:28:48.722Z,68.20
2019-02-25T01:29:48.694Z,67.99
2019-02-25T01:31:19.788Z,69.66
2019-02-25T01:32:19.370Z,69.76
2019-02-25T01:33:50.077Z,71.33
2019-02-25T01:34:50.038Z,69.66
2019-02-25T01:36:20.808Z,69.24
2019-02-25T01:37:20.758Z,70.39
2019-02-25T01:38:51.483Z,71.22
2019-02-25T01:39:51.448Z,71.22
2019-02-25T01:41:22.128Z,70.81
2019-02-25T01:42:22.104Z,71.22
2019-02-25T01:43:52.830Z,71.43
2019-02-25T01:44:52.808Z,70.63
2019-02-25T01:46:23.484Z,70.50
2019-02-25T01:47:23.466Z,70.91
2019-02-25T01:48:55.042Z,71.12
2019-02-25T01:49:54.166Z,71.12
2019-02-25T01:51:24.856Z,70.84
2019-02-25T01:52:24.876Z,71.64
2019-02-25T01:53:55.948Z,71.53
2019-02-25T01:54:55.484Z,70.91
2019-02-25T01:56:26.217Z,71.43
2019-02-25T01:57:26.188Z,71.67
2019-02-25T01:58:56.910Z,71.04
2019-02-25T01:59:56.848Z,70.63
2019-02-25T02:01:27.570Z,70.84
2019-02-25T02:02:27.549Z,70.84
2019-02-25T02:03:58.218Z,69.69
2019-02-25T02:04:58.218Z,69.90
2019-02-25T02:06:28.876Z,70.11
2019-02-25T02:07:28.863Z,70.21
2019-02-25T02:09:12.259Z,70.21
2019-02-25T02:10:12.208Z,70.21
2019-02-25T02:11:43.309Z,70.53
2019-02-25T02:12:42.900Z,70.53
2019-02-25T02:14:13.588Z,71.08
2019-02-25T02:15:13.554Z,70.87
2019-02-25T02:16:45.149Z,70.98
2019-02-25T02:17:44.256Z,70.84
2019-02-25T02:19:14.972Z,70.87
2019-02-25T02:20:14.942Z,71.04
2019-02-25T02:21:46.510Z,70.45
2019-02-25T02:22:45.602Z,70.04
2019-02-25T02:24:16.289Z,71.04
2019-02-25T02:25:16.262Z,70.25
2019-02-25T02:26:46.967Z,70.35
2019-02-25T02:27:46.926Z,70.25
2019-02-25T02:29:18.021Z,70.66
2019-02-25T02:30:17.601Z,70.35
2019-02-25T02:31:49.288Z,70.56
2019-02-25T02:32:49.263Z,71.39
2019-02-25T02:34:19.935Z,70.98
2019-02-25T02:35:19.914Z,71.08
2019-02-25T02:36:50.640Z,71.70
2019-02-25T02:37:50.590Z,71.60
2019-02-25T02:39:21.270Z,71.70
2019-02-25T02:40:21.307Z,71.19
2019-02-25T02:41:51.427Z,71.70
2019-02-25T02:42:51.394Z,71.29
2019-02-25T02:44:22.118Z,72.23
2019-02-25T02:45:22.088Z,71.70
2019-02-25T02:46:52.792Z,70.76
2019-02-25T02:47:52.771Z,71.47
2019-02-25T02:49:23.437Z,70.87
2019-02-25T02:50:23.430Z,70.94
2019-02-25T02:51:54.171Z,71.29
2019-02-25T02:52:54.130Z,70.87
2019-02-25T02:54:24.274Z,70.87
2019-02-25T02:55:24.249Z,71.47
2019-02-25T02:56:54.941Z,71.26
2019-02-25T02:57:55.814Z,71.36
2019-02-25T02:59:25.608Z,71.08
2019-02-25T03:00:25.600Z,71.60
2019-02-25T03:01:56.287Z,72.02
2019-02-25T03:02:56.245Z,71.29
2019-02-25T03:04:26.939Z,71.39
2019-02-25T03:05:26.915Z,71.29
2019-02-25T03:06:57.619Z,70.87
2019-02-25T03:07:57.617Z,70.76
2019-02-25T03:09:29.296Z,70.94
2019-02-25T03:10:29.255Z,70.94
2019-02-25T03:11:59.966Z,70.84
2019-02-25T03:12:59.934Z,71.15
2019-02-25T03:14:30.648Z,71.04
2019-02-25T03:15:30.626Z,70.73
2019-02-25T03:17:01.729Z,71.57
2019-02-25T03:18:01.376Z,70.73
2019-02-25T03:19:32.022Z,71.04
2019-02-25T03:20:31.995Z,71.36
2019-02-25T03:22:02.700Z,71.98
2019-02-25T03:23:02.676Z,71.78
2019-02-25T03:24:33.781Z,72.19
2019-02-25T03:25:33.364Z,71.81
2019-02-25T03:27:04.086Z,72.75
2019-02-25T03:28:04.055Z,73.03
2019-02-25T03:29:34.769Z,73.17
2019-02-25T03:30:34.783Z,73.13
2019-02-25T03:32:05.441Z,73.38
2019-02-25T03:33:05.413Z,74.01
2019-02-25T03:34:36.110Z,73.90
2019-02-25T03:35:36.979Z,73.27
2019-02-25T03:37:06.808Z,72.75
2019-02-25T03:38:06.776Z,72.64
2019-02-25T03:39:37.507Z,73.07
2019-02-25T03:40:37.462Z,73.07
2019-02-25T03:42:08.146Z,73.48
2019-02-25T03:43:08.116Z,73.58
2019-02-25T03:44:38.796Z,73.27
2019-02-25T03:45:39.685Z,73.17
2019-02-25T03:47:09.520Z,73.58
2019-02-25T03:48:10.338Z,73.48
2019-02-25T03:49:40.200Z,73.17
2019-02-25T03:50:40.145Z,73.27
2019-02-25T03:52:10.849Z,72.96
2019-02-25T03:53:10.836Z,73.38
2019-02-25T03:54:41.533Z,73.07
2019-02-25T03:55:41.510Z,72.44
2019-02-25T03:57:12.221Z,73.20
2019-02-25T03:58:12.226Z,74.11
2019-02-25T03:59:42.929Z,74.66
2019-02-25T04:00:42.879Z,74.94
2019-02-25T04:02:13.581Z,75.50
2019-02-25T04:03:13.541Z,75.92
2019-02-25T04:04:44.208Z,76.23
2019-02-25T04:05:44.234Z,76.02
2019-02-25T04:07:14.906Z,76.06
2019-02-25T04:08:14.872Z,76.75
2019-02-25T04:09:45.050Z,77.59
2019-02-25T04:10:45.035Z,77.41
2019-02-25T04:12:15.720Z,76.57
2019-02-25T04:13:15.709Z,77.51
2019-02-25T04:14:46.385Z,76.37
2019-02-25T04:15:47.263Z,75.81
2019-02-25T04:17:17.926Z,75.39
2019-02-25T04:18:17.937Z,75.01
2019-02-25T04:19:47.744Z,75.39
2019-02-25T04:20:47.744Z,75.29
2019-02-25T04:22:18.832Z,75.08
2019-02-25T04:23:18.442Z,75.53
2019-02-25T04:24:49.518Z,75.01
2019-02-25T04:25:49.095Z,74.07
2019-02-25T04:27:20.112Z,74.49
2019-02-25T04:28:19.223Z,74.80
2019-02-25T04:29:49.355Z,75.12
2019-02-25T04:30:49.336Z,75.63
2019-02-25T04:32:21.686Z,75.32
2019-02-25T04:33:20.041Z,74.91
2019-02-25T04:34:51.609Z,75.01
2019-02-25T04:35:50.719Z,75.74
2019-02-25T04:37:21.418Z,75.78
2019-02-25T04:38:21.396Z,75.57
2019-02-25T04:39:52.067Z,76.26
2019-02-25T04:40:52.059Z,75.88
2019-02-25T04:42:22.774Z,76.09
2019-02-25T04:43:22.732Z,75.78
2019-02-25T04:44:53.409Z,76.16
2019-02-25T04:46:43.525Z,77.76
2019-02-25T04:47:43.501Z,77.69
2019-02-25T04:49:14.189Z,78.22
2019-02-25T04:50:14.160Z,79.05
2019-02-25T04:51:44.881Z,78.01
2019-02-25T04:52:44.869Z,77.80
2019-02-25T04:54:15.582Z,77.66
2019-02-25T04:55:15.539Z,77.48
2019-02-25T04:56:46.245Z,77.06
2019-02-25T04:57:46.205Z,76.23
2019-02-25T04:59:16.906Z,76.96
2019-02-25T05:00:17.772Z,77.24
2019-02-25T05:01:47.606Z,77.38
2019-02-25T05:02:47.595Z,77.59
2019-02-25T05:04:18.284Z,77.10
2019-02-25T05:05:18.261Z,77.00
2019-02-25T05:06:48.402Z,77.62
2019-02-25T05:07:48.382Z,77.31
2019-02-25T05:09:19.063Z,77.62
2019-02-25T05:10:19.052Z,77.94
2019-02-25T05:11:49.746Z,77.62
2019-02-25T05:12:49.729Z,77.42
2019-02-25T05:14:20.396Z,77.52
2019-02-25T05:15:20.391Z,77.62
2019-02-25T05:16:51.095Z,77.90
2019-02-25T05:17:51.940Z,77.83
2019-02-25T05:19:21.730Z,77.83
2019-02-25T05:20:21.727Z,78.15
2019-02-25T05:21:52.486Z,77.42
2019-02-25T05:22:52.444Z,77.38
2019-02-25T05:24:24.008Z,76.89
2019-02-25T05:25:23.153Z,78.04
2019-02-25T05:26:53.854Z,78.04
2019-02-25T05:27:53.833Z,78.25
2019-02-25T05:29:24.508Z,79.09
2019-02-25T05:30:24.473Z,79.19
2019-02-25T05:31:55.183Z,77.42
2019-02-25T05:32:55.158Z,78.15
2019-02-25T05:34:26.254Z,78.15
2019-02-25T05:35:26.750Z,78.36
2019-02-25T05:36:56.535Z,78.15
2019-02-25T05:37:56.550Z,77.94
2019-02-25T05:39:27.210Z,78.36
2019-02-25T05:40:27.196Z,77.69
2019-02-25T05:41:57.857Z,77.83
2019-02-25T05:42:57.835Z,78.04
2019-02-25T05:44:28.552Z,78.46
2019-02-25T05:45:29.426Z,78.77
2019-02-25T05:46:59.634Z,78.36
2019-02-25T05:47:59.178Z,79.09
2019-02-25T05:49:29.866Z,79.09
2019-02-25T05:50:29.836Z,79.30
2019-02-25T05:52:01.410Z,79.09
2019-02-25T05:53:01.412Z,78.77
2019-02-25T05:54:31.286Z,78.88
2019-02-25T05:55:31.203Z,79.19
2019-02-25T05:57:01.909Z,79.09
2019-02-25T05:58:01.886Z,79.72
2019-02-25T05:59:32.557Z,79.30
2019-02-25T06:00:32.527Z,79.19
2019-02-25T06:02:05.425Z,79.40
2019-02-25T06:03:03.205Z,79.09
2019-02-25T06:04:33.882Z,79.40
2019-02-25T06:05:33.864Z,79.44
2019-02-25T06:07:04.561Z,79.40
2019-02-25T06:08:04.556Z,79.33
2019-02-25T06:09:35.848Z,79.23
2019-02-25T06:10:35.536Z,79.19
2019-02-25T06:12:06.527Z,79.30
2019-02-25T06:13:06.250Z,79.30
2019-02-25T06:14:36.923Z,79.82
2019-02-25T06:15:36.885Z,79.61
2019-02-25T06:17:07.562Z,79.82
2019-02-25T06:18:07.540Z,79.61
2019-02-25T06:19:39.144Z,79.93
2019-02-25T06:20:38.225Z,79.82
2019-02-25T06:22:08.928Z,79.61
2019-02-25T06:23:09.826Z,80.03
2019-02-25T06:25:48.058Z,79.50
2019-02-25T06:26:48.023Z,79.50
2019-02-25T06:28:18.763Z,79.50
2019-02-25T06:30:08.870Z,79.47
2019-02-25T06:31:09.768Z,79.47
2019-02-25T06:32:40.528Z,79.36
2019-02-25T06:33:40.506Z,80.03
2019-02-25T06:35:11.241Z,79.93
2019-02-25T06:36:11.223Z,80.03
2019-02-25T06:37:41.916Z,79.47
2019-02-25T06:38:41.908Z,79.26
2019-02-25T06:40:15.241Z,79.47
2019-02-25T06:41:12.568Z,79.68
2019-02-25T06:42:43.250Z,79.36
2019-02-25T06:43:43.222Z,78.74
2019-02-25T06:45:13.914Z,78.74
2019-02-25T06:46:13.895Z,78.81
2019-02-25T06:47:44.621Z,79.12
2019-02-25T06:48:44.595Z,78.60
2019-02-25T06:50:15.317Z,77.20
2019-02-25T06:51:15.265Z,77.94
2019-02-25T06:52:45.950Z,77.51
2019-02-25T06:53:45.947Z,78.25
2019-02-25T06:55:16.625Z,78.25
2019-02-25T06:56:16.584Z,77.59
2019-02-25T06:57:47.295Z,78.11
2019-02-25T06:58:47.264Z,77.27
2019-02-25T07:00:17.954Z,77.59
2019-02-25T07:01:17.939Z,77.17
2019-02-25T07:02:48.598Z,76.30
2019-02-25T07:03:48.582Z,75.88
2019-02-25T07:05:19.268Z,75.63
2019-02-25T07:06:19.248Z,75.22
2019-02-25T07:07:49.959Z,74.46
2019-02-25T07:08:49.972Z,73.69
2019-02-25T07:10:20.628Z,72.62
2019-02-25T07:11:20.624Z,72.17
2019-02-25T07:12:51.326Z,70.68
2019-02-25T07:13:51.306Z,70.68
2019-02-25T07:15:21.978Z,69.50
2019-02-25T07:16:21.979Z,69.40
2019-02-25T07:17:22.721Z,69.57
2019-02-25T07:18:21.928Z,69.15
2019-02-25T07:19:21.916Z,68.40
2019-02-25T07:20:21.914Z,68.47
2019-02-25T07:21:21.912Z,66.99
2019-02-25T07:22:21.896Z,66.54
2019-02-25T07:23:21.887Z,64.82
2019-02-25T07:24:21.868Z,63.62
2019-02-25T07:25:21.856Z,61.69
2019-02-25T07:26:21.848Z,60.06
2019-02-25T07:27:21.830Z,57.81
2019-02-25T07:28:21.836Z,56.10
2019-02-25T07:29:21.833Z,53.56
2019-02-25T07:30:21.804Z,51.76
2019-02-25T07:31:21.789Z,50.35
2019-02-25T07:32:21.784Z,48.14
2019-02-25T07:33:21.772Z,46.44
2019-02-25T07:34:21.755Z,45.47
2019-02-25T07:35:21.751Z,44.29
2019-02-25T07:36:21.742Z,42.29
2019-02-25T07:37:21.726Z,41.44
2019-02-25T07:38:21.731Z,41.22
2019-02-25T07:39:21.736Z,40.28
2019-02-25T07:40:21.700Z,39.76
2019-02-25T07:41:21.680Z,40.14
2019-02-25T07:42:21.671Z,37.87
2019-02-25T07:43:21.664Z,37.84
2019-02-25T07:44:21.660Z,38.12
2019-02-25T07:45:21.644Z,36.16
2019-02-25T07:46:21.629Z,36.14
2019-02-25T07:47:21.620Z,35.72
2019-02-25T07:48:21.608Z,35.29
2019-02-25T07:49:21.610Z,34.45
2019-02-25T07:50:21.598Z,33.64
2019-02-25T07:51:21.578Z,33.33
2019-02-25T07:52:21.570Z,33.33
2019-02-25T07:53:21.546Z,33.01
2019-02-25T07:54:21.540Z,31.77
2019-02-25T07:55:21.542Z,31.96
2019-02-25T07:56:21.528Z,32.14
2019-02-25T07:57:21.516Z,31.93
2019-02-25T07:58:21.508Z,31.51
2019-02-25T07:59:21.482Z,30.48
2019-02-25T08:00:21.474Z,31.22
2019-02-25T08:01:21.466Z,31.12
2019-02-25T08:02:21.469Z,31.32
2019-02-25T08:03:21.442Z,30.19
2019-02-25T08:04:21.428Z,29.66
2019-02-25T08:05:21.429Z,28.74
2019-02-25T08:06:21.414Z,28.61
2019-02-25T08:07:21.404Z,28.11
2019-02-25T08:08:21.394Z,27.91
2019-02-25T08:09:21.378Z,30.04
2019-02-25T08:10:21.365Z,29.52
2019-02-25T08:11:21.901Z,29.22
2019-02-25T08:12:21.346Z,30.14
2019-02-25T08:13:21.344Z,30.14
2019-02-25T08:14:21.318Z,29.88
2019-02-25T08:15:21.331Z,29.78
2019-02-25T08:16:21.301Z,29.35
2019-02-25T08:17:21.294Z,28.03
2019-02-25T08:18:21.282Z,28.02
2019-02-25T08:19:21.282Z,28.22
2019-02-25T08:20:21.258Z,28.01
2019-02-25T08:21:21.261Z,27.88
2019-02-25T08:22:22.889Z,27.88
2019-02-25T08:23:21.235Z,27.15
2019-02-25T08:24:30.172Z,26.67
2019-02-25T08:25:22.208Z,26.95
2019-02-25T08:26:21.192Z,26.64
2019-02-25T08:27:21.189Z,26.43
2019-02-25T08:28:21.195Z,25.92
2019-02-25T08:29:21.168Z,26.32
2019-02-25T08:30:21.165Z,26.01
2019-02-25T08:31:21.155Z,24.59
2019-02-25T08:32:21.134Z,25.48
2019-02-25T08:33:21.125Z,24.88
2019-02-25T08:34:21.111Z,24.79
2019-02-25T08:35:21.104Z,25.32
2019-02-25T08:36:21.090Z,25.44
2019-02-25T08:37:21.088Z,26.25
2019-02-25T08:38:21.102Z,25.94
2019-02-25T08:39:21.064Z,26.85
2019-02-25T08:40:21.057Z,26.03
2019-02-25T08:41:21.042Z,25.73
2019-02-25T08:42:21.033Z,25.71
2019-02-25T08:43:21.024Z,25.08
2019-02-25T08:44:21.015Z,25.67
2019-02-25T08:45:22.805Z,24.96
2019-02-25T08:46:20.996Z,24.05
2019-02-25T08:47:20.982Z,23.45
2019-02-25T08:48:20.969Z,24.26
2019-02-25T08:49:20.971Z,23.84
2019-02-25T08:50:20.953Z,24.15
2019-02-25T08:51:20.954Z,24.14
2019-02-25T08:52:20.942Z,23.93
2019-02-25T08:53:20.922Z,24.84
2019-02-25T08:54:20.927Z,24.96
2019-02-25T08:55:20.916Z,24.05
2019-02-25T08:56:20.884Z,23.83
2019-02-25T08:57:20.878Z,24.41
2019-02-25T08:58:20.874Z,23.77
2019-02-25T08:59:20.858Z,22.76
2019-02-25T09:00:20.853Z,21.88
2019-02-25T09:01:20.864Z,23.18
2019-02-25T09:02:20.824Z,23.19
2019-02-25T09:03:20.813Z,23.30
2019-02-25T09:04:20.811Z,23.19
2019-02-25T09:05:20.799Z,23.18
2019-02-25T09:06:20.795Z,22.96
2019-02-25T09:07:20.787Z,21.66
2019-02-25T09:08:20.776Z,21.36
2019-02-25T09:09:20.774Z,22.39
2019-02-25T09:10:20.755Z,22.08
2019-02-25T09:11:20.744Z,22.16
2019-02-25T09:12:20.735Z,21.44
2019-02-25T09:13:23.797Z,21.53
2019-02-25T09:14:20.715Z,21.26
2019-02-25T09:15:20.704Z,21.56
2019-02-25T09:16:20.701Z,22.16
2019-02-25T09:17:20.684Z,21.56
2019-02-25T09:18:20.733Z,22.47
2019-02-25T09:19:20.712Z,22.81
2019-02-25T09:20:20.648Z,22.71
2019-02-25T09:21:20.649Z,23.19
2019-02-25T09:22:20.655Z,21.88
2019-02-25T09:23:20.624Z,23.37
2019-02-25T09:24:20.634Z,22.88
2019-02-25T09:25:20.616Z,23.27
2019-02-25T09:26:20.636Z,23.76
2019-02-25T09:27:20.580Z,23.60
2019-02-25T09:28:20.577Z,23.61
2019-02-25T09:29:20.565Z,24.63
2019-02-25T09:30:20.559Z,24.44
2019-02-25T09:31:20.545Z,24.76
2019-02-25T09:32:20.536Z,24.23
2019-02-25T09:33:20.519Z,24.03
2019-02-25T09:34:20.517Z,23.92
2019-02-25T09:35:20.504Z,23.82
2019-02-25T09:36:20.502Z,23.93
2019-02-25T09:37:20.484Z,23.74
2019-02-25T09:38:20.471Z,24.24
2019-02-25T09:39:20.472Z,24.24
2019-02-25T09:40:20.456Z,24.57
2019-02-25T09:41:29.460Z,25.58
2019-02-25T09:42:21.444Z,25.38
2019-02-25T09:43:20.431Z,26.50
2019-02-25T09:44:20.416Z,27.41
2019-02-25T09:45:20.403Z,27.01
2019-02-25T09:46:20.408Z,27.34
2019-02-25T09:47:20.398Z,27.44
2019-02-25T09:48:20.383Z,28.17
2019-02-25T09:49:20.366Z,29.16
2019-02-25T09:50:20.360Z,28.63
2019-02-25T09:51:20.344Z,27.70
2019-02-25T09:52:20.342Z,27.10
2019-02-25T09:53:20.331Z,27.70
2019-02-25T09:54:20.339Z,27.31
2019-02-25T09:55:20.324Z,27.20
2019-02-25T09:56:20.294Z,26.89
2019-02-25T09:57:20.313Z,26.79
2019-02-25T09:58:20.280Z,28.23
2019-02-25T09:59:20.274Z,29.71
2019-02-25T10:00:20.282Z,31.56
2019-02-25T10:01:20.244Z,31.26
2019-02-25T10:02:20.236Z,30.86
2019-02-25T10:03:20.220Z,32.20
2019-02-25T10:04:20.212Z,33.34
2019-02-25T10:05:20.220Z,34.08
2019-02-25T10:06:20.186Z,35.43
2019-02-25T10:07:20.186Z,35.92
2019-02-25T10:08:20.172Z,35.09
2019-02-25T10:09:29.480Z,34.66
2019-02-25T10:10:21.156Z,33.83
2019-02-25T10:11:20.146Z,32.60
2019-02-25T10:12:20.135Z,32.81
2019-02-25T10:13:20.122Z,32.49
2019-02-25T10:14:20.112Z,31.67
2019-02-25T10:15:20.104Z,32.47
2019-02-25T10:16:20.092Z,32.57
2019-02-25T10:17:23.776Z,32.87
2019-02-25T10:18:20.068Z,32.67
2019-02-25T10:19:20.052Z,31.95
2019-02-25T10:20:20.074Z,32.87
2019-02-25T10:21:20.046Z,31.67
2019-02-25T10:22:20.039Z,32.98
2019-02-25T10:23:20.030Z,32.57
2019-02-25T10:24:20.012Z,32.47
2019-02-25T10:25:20.000Z,33.07
2019-02-25T10:26:19.992Z,32.95
2019-02-25T10:27:19.985Z,33.15
2019-02-25T10:28:19.974Z,31.32
2019-02-25T10:29:19.969Z,31.53
2019-02-25T10:30:19.945Z,31.53
2019-02-25T10:31:19.934Z,31.62
2019-02-25T10:32:19.930Z,32.23
2019-02-25T10:33:19.970Z,32.41
2019-02-25T10:34:19.914Z,32.31
2019-02-25T10:35:19.922Z,32.32
2019-02-25T10:36:19.894Z,31.82
2019-02-25T10:37:19.878Z,32.73
2019-02-25T10:38:21.532Z,32.23
2019-02-25T10:39:19.902Z,31.71
2019-02-25T10:40:24.004Z,33.11
2019-02-25T10:41:21.686Z,32.39
2019-02-25T10:42:19.822Z,31.77
2019-02-25T10:43:19.853Z,31.96
2019-02-25T10:44:19.804Z,31.96
2019-02-25T10:45:19.836Z,31.14
2019-02-25T10:46:19.786Z,30.14
2019-02-25T10:47:21.421Z,30.87
2019-02-25T10:48:21.499Z,31.19
2019-02-25T10:49:19.750Z,31.98
2019-02-25T10:50:19.762Z,32.03
2019-02-25T10:51:19.734Z,32.71
2019-02-25T10:52:19.724Z,33.11
2019-02-25T10:53:21.604Z,32.91
2019-02-25T10:54:21.257Z,33.60
2019-02-25T10:55:19.691Z,33.31
2019-02-25T10:56:21.514Z,33.30
2019-02-25T10:57:21.334Z,33.40
2019-02-25T10:58:19.666Z,33.20
2019-02-25T10:59:19.650Z,33.10
2019-02-25T11:00:19.631Z,31.57
2019-02-25T11:01:22.046Z,32.38
2019-02-25T11:02:19.614Z,33.08
2019-02-25T11:03:21.630Z,32.90
2019-02-25T11:04:21.631Z,33.40
2019-02-25T11:05:21.161Z,34.19
2019-02-25T11:06:19.599Z,34.69
2019-02-25T11:07:19.567Z,33.57
2019-02-25T11:08:19.551Z,33.37
2019-02-25T11:09:19.542Z,33.27
2019-02-25T11:10:20.391Z,32.90
2019-02-25T11:11:21.004Z,33.94
2019-02-25T11:12:21.457Z,34.76
2019-02-25T11:13:19.503Z,35.86
2019-02-25T11:14:19.490Z,36.47
2019-02-25T11:15:19.486Z,36.05
2019-02-25T11:16:20.446Z,35.13
2019-02-25T11:17:20.350Z,35.75
2019-02-25T11:18:20.267Z,38.81
2019-02-25T11:19:19.451Z,38.93
2019-02-25T11:20:19.449Z,39.97
2019-02-25T11:21:19.409Z,40.86
2019-02-25T11:22:19.415Z,39.85
2019-02-25T11:23:19.968Z,39.17
2019-02-25T11:24:21.135Z,39.87
2019-02-25T11:25:21.047Z,39.85
2019-02-25T11:26:19.360Z,39.75
2019-02-25T11:27:19.343Z,40.25
2019-02-25T11:28:25.484Z,40.88
2019-02-25T11:29:20.320Z,39.97
2019-02-25T11:30:21.130Z,39.55
2019-02-25T11:31:22.850Z,40.56
2019-02-25T11:32:21.546Z,40.56
2019-02-25T11:33:19.276Z,40.88
2019-02-25T11:34:19.273Z,41.28
2019-02-25T11:35:19.260Z,40.76
2019-02-25T11:36:21.728Z,41.16
2019-02-25T11:37:21.712Z,40.86
2019-02-25T11:38:19.225Z,41.36
2019-02-25T11:39:19.220Z,39.85
2019-02-25T11:40:19.212Z,40.78
2019-02-25T11:41:19.213Z,41.08
2019-02-25T11:42:20.642Z,40.76
2019-02-25T11:43:21.500Z,40.96
2019-02-25T11:44:21.101Z,40.16
2019-02-25T11:45:19.166Z,40.16
2019-02-25T11:46:19.142Z,41.20
2019-02-25T11:47:19.123Z,41.00
2019-02-25T11:48:19.123Z,40.80
2019-02-25T11:49:19.118Z,41.73
2019-02-25T11:50:19.099Z,42.05
2019-02-25T11:51:19.094Z,42.37
2019-02-25T11:52:19.086Z,43.18
2019-02-25T11:53:19.060Z,42.66
2019-02-25T11:54:19.058Z,42.78
2019-02-25T11:55:19.040Z,43.38
2019-02-25T11:56:19.035Z,43.71
2019-02-25T11:57:19.030Z,44.26
2019-02-25T11:58:19.015Z,45.67
2019-02-25T11:59:19.006Z,45.90
2019-02-25T12:00:19.019Z,45.67
2019-02-25T12:01:18.975Z,45.57
2019-02-25T12:02:25.277Z,45.47
2019-02-25T12:03:19.956Z,47.09
2019-02-25T12:04:18.950Z,46.87
2019-02-25T12:05:18.937Z,46.87
2019-02-25T12:06:18.918Z,47.07
2019-02-25T12:07:18.908Z,46.24
2019-02-25T12:08:18.900Z,46.52
2019-02-25T12:09:18.892Z,46.01
2019-02-25T12:10:18.880Z,45.29
2019-02-25T12:11:18.872Z,45.33
2019-02-25T12:12:18.856Z,45.10
2019-02-25T12:13:18.862Z,46.04
2019-02-25T12:14:18.836Z,46.14
2019-02-25T12:15:18.829Z,45.83
2019-02-25T12:16:18.816Z,45.51
2019-02-25T12:17:18.827Z,44.80
2019-02-25T12:18:18.787Z,45.20
2019-02-25T12:19:18.775Z,45.29
2019-02-25T12:20:18.772Z,44.78
2019-02-25T12:21:18.762Z,44.80
2019-02-25T12:22:18.764Z,45.63
2019-02-25T12:23:18.738Z,47.38
2019-02-25T12:24:18.730Z,48.08
2019-02-25T12:25:18.723Z,47.38
2019-02-25T12:26:18.742Z,47.39
2019-02-25T12:27:18.718Z,47.67
2019-02-25T12:28:18.704Z,47.98
2019-02-25T12:29:18.670Z,47.17
2019-02-25T12:30:18.661Z,47.38
2019-02-25T12:31:18.648Z,47.15
2019-02-25T12:32:18.637Z,46.83
2019-02-25T12:33:18.668Z,45.71
2019-02-25T12:34:18.674Z,46.32
2019-02-25T12:35:18.611Z,46.34
2019-02-25T12:36:18.602Z,46.36
2019-02-25T12:37:18.586Z,47.27
2019-02-25T12:38:18.574Z,47.80
2019-02-25T12:39:18.572Z,47.50
2019-02-25T12:40:18.566Z,47.39
2019-02-25T12:41:18.544Z,48.82
2019-02-25T12:42:18.530Z,47.17
2019-02-25T12:43:18.526Z,46.89
2019-02-25T12:44:18.508Z,47.30
2019-02-25T12:45:18.520Z,47.78
2019-02-25T12:46:18.492Z,46.97
2019-02-25T12:47:18.478Z,47.47
2019-02-25T12:48:18.467Z,46.46
2019-02-25T12:49:18.450Z,45.45
2019-02-25T12:50:18.483Z,46.16
2019-02-25T12:51:18.447Z,45.96
2019-02-25T12:52:18.436Z,45.94
2019-02-25T12:53:18.417Z,44.82
2019-02-25T12:54:18.403Z,45.23
2019-02-25T12:55:18.392Z,44.82
2019-02-25T12:56:18.378Z,45.71
2019-02-25T12:57:18.366Z,44.98
2019-02-25T12:58:18.363Z,44.40
2019-02-25T12:59:18.346Z,45.12
2019-02-25T13:00:18.346Z,45.83
2019-02-25T13:01:18.332Z,45.73
2019-02-25T13:02:18.315Z,45.71
2019-02-25T13:03:18.316Z,45.18
2019-02-25T13:04:48.994Z,44.88
2019-02-25T13:05:48.973Z,45.08
2019-02-25T13:07:19.706Z,45.51
2019-02-25T13:08:19.669Z,45.69
2019-02-25T13:09:50.383Z,46.09
2019-02-25T13:10:50.336Z,45.39
2019-02-25T13:11:50.318Z,45.29
2019-02-25T13:12:51.556Z,44.35
2019-02-25T13:13:50.295Z,43.37
2019-02-25T13:14:50.278Z,43.37
2019-02-25T13:15:50.284Z,43.26
2019-02-25T13:16:50.274Z,43.08
2019-02-25T13:17:50.257Z,44.12
2019-02-25T13:18:50.238Z,44.20
2019-02-25T13:19:50.265Z,43.43
2019-02-25T13:20:50.216Z,43.51
2019-02-25T13:21:50.214Z,43.73
2019-02-25T13:22:50.231Z,44.64
2019-02-25T13:23:50.184Z,43.91
2019-02-25T13:24:50.168Z,43.69
2019-02-25T13:25:50.267Z,43.18
2019-02-25T13:26:50.158Z,42.78
2019-02-25T13:27:51.452Z,42.96
2019-02-25T13:28:50.126Z,42.76
2019-02-25T13:29:50.113Z,42.64
2019-02-25T13:30:50.109Z,42.13
2019-02-25T13:31:50.112Z,42.23
2019-02-25T13:32:50.096Z,41.95
2019-02-25T13:33:50.106Z,42.46
2019-02-25T13:34:50.060Z,42.88
2019-02-25T13:35:50.078Z,43.41
2019-02-25T13:36:50.050Z,44.13
2019-02-25T13:37:50.023Z,44.06
2019-02-25T13:38:50.024Z,43.85
2019-02-25T13:39:50.012Z,44.99
2019-02-25T13:40:50.004Z,45.39
2019-02-25T13:41:49.978Z,45.09
2019-02-25T13:42:50.053Z,45.82
2019-02-25T13:43:49.982Z,45.92
2019-02-25T13:44:49.972Z,46.04
2019-02-25T13:45:49.950Z,45.94
2019-02-25T13:46:49.927Z,46.35
2019-02-25T13:47:49.976Z,46.98
2019-02-25T13:48:49.906Z,46.75
2019-02-25T13:49:49.895Z,47.38
2019-02-25T13:50:49.900Z,47.46
2019-02-25T13:51:49.877Z,47.08
2019-02-25T13:52:49.870Z,47.69
2019-02-25T13:53:49.853Z,47.28
2019-02-25T13:54:49.850Z,47.18
2019-02-25T13:55:49.864Z,47.81
2019-02-25T13:56:49.826Z,47.71
2019-02-25T13:57:49.810Z,47.94
2019-02-25T13:58:49.823Z,47.94
2019-02-25T13:59:49.785Z,47.94
2019-02-25T14:00:49.771Z,48.75
2019-02-25T14:01:49.772Z,48.75
2019-02-25T14:02:49.761Z,48.04
2019-02-25T14:03:49.740Z,48.44
2019-02-25T14:04:49.922Z,48.06
2019-02-25T14:05:49.725Z,48.67
2019-02-25T14:06:49.731Z,48.06
2019-02-25T14:07:49.699Z,48.67
2019-02-25T14:08:49.697Z,48.19
2019-02-25T14:09:49.689Z,48.49
2019-02-25T14:10:49.668Z,49.00
2019-02-25T14:11:49.711Z,48.80
2019-02-25T14:12:49.670Z,49.00
2019-02-25T14:13:49.631Z,49.10
2019-02-25T14:14:49.622Z,50.04
2019-02-25T14:15:49.624Z,50.01
2019-02-25T14:16:49.599Z,49.61
2019-02-25T14:17:49.592Z,49.02
2019-02-25T14:18:49.603Z,49.12
2019-02-25T14:19:51.883Z,49.10
2019-02-25T14:20:49.570Z,49.02
2019-02-25T14:21:49.558Z,48.72
2019-02-25T14:22:49.543Z,49.10
2019-02-25T14:23:49.549Z,49.12
2019-02-25T14:24:49.609Z,49.43